Time,TemperatureF,DewpointF,PressureIn,WindDirection,WindDirectionDegrees,WindSpeedMPH,WindSpeedGustMPH,Humidity,HourlyPrecipIn,Conditions,Clouds,dailyrainin,SoftwareType,DateUTC
2013-01-23 00:00:00,40.0,30.0,-100.00,ENE,60,0.0,-999.0,65,0.00,,,0.00,,2013-01-23 06:00:00,
2013-01-23 00:32:00,40.0,30.0,-100.00,ENE,60,0.0,-999.0,65,0.00,,,0.00,,2013-01-23 06:32:00,
2013-01-23 00:43:00,40.0,30.0,-100.00,ENE,60,0.0,-999.0,65,0.00,,,0.00,,2013-01-23 06:43:00,
2013-01-23 00:53:00,40.0,30.0,-100.00,ENE,60,0.0,-999.0,65,0.00,,,0.00,,2013-01-23 06:53:00,
2013-01-23 01:00:00,40.0,30.0,-100.00,East,82,0.0,-999.0,66,0.00,,,0.00,,2013-01-23 07:00:00,
2013-01-23 01:33:00,40.0,30.0,-100.00,East,82,0.0,-999.0,66,0.00,,,0.00,,2013-01-23 07:33:00,
2013-01-23 01:43:00,40.0,30.0,-100.00,East,82,0.0,-999.0,66,0.00,,,0.00,,2013-01-23 07:43:00,
2013-01-23 01:53:00,40.0,30.0,-100.00,East,82,0.0,-999.0,66,0.00,,,0.00,,2013-01-23 07:53:00,
2013-01-23 02:00:00,37.0,32.0,-100.00,NNE,20,0.0,-999.0,81,0.00,,,0.00,,2013-01-23 08:00:00,
2013-01-23 02:33:00,37.0,32.0,-100.00,NNE,20,0.0,-999.0,81,0.00,,,0.00,,2013-01-23 08:33:00,
2013-01-23 02:43:00,37.0,32.0,-100.00,NNE,20,0.0,-999.0,81,0.00,,,0.00,,2013-01-23 08:43:00,
2013-01-23 02:53:00,37.0,32.0,-100.00,NNE,20,0.0,-999.0,81,0.00,,,0.00,,2013-01-23 08:53:00,
2013-01-23 03:00:00,38.0,32.0,-100.00,NNE,14,0.0,-999.0,78,0.00,,,0.00,,2013-01-23 09:00:00,
2013-01-23 03:32:00,38.0,32.0,-100.00,NNE,14,0.0,-999.0,78,0.00,,,0.00,,2013-01-23 09:32:00,
2013-01-23 03:43:00,38.0,32.0,-100.00,NNE,14,0.0,-999.0,78,0.00,,,0.00,,2013-01-23 09:43:00,
2013-01-23 03:53:00,38.0,32.0,-100.00,NNE,14,0.0,-999.0,78,0.00,,,0.00,,2013-01-23 09:53:00,
2013-01-23 04:00:00,39.0,31.0,-100.00,East,90,0.0,-999.0,75,0.00,,,0.00,,2013-01-23 10:00:00,
2013-01-23 04:33:00,39.0,31.0,-100.00,East,90,0.0,-999.0,75,0.00,,,0.00,,2013-01-23 10:33:00,
2013-01-23 04:43:00,39.0,31.0,-100.00,East,90,0.0,-999.0,75,0.00,,,0.00,,2013-01-23 10:43:00,
2013-01-23 04:53:00,39.0,31.0,-100.00,East,90,0.0,-999.0,75,0.00,,,0.00,,2013-01-23 10:53:00,
2013-01-23 05:00:00,37.0,30.0,-100.00,SE,142,0.0,-999.0,76,0.00,,,0.00,,2013-01-23 11:00:00,
2013-01-23 05:33:00,37.0,30.0,-100.00,SE,142,0.0,-999.0,76,0.00,,,0.00,,2013-01-23 11:33:00,
2013-01-23 05:43:00,37.0,30.0,-100.00,SE,142,0.0,-999.0,76,0.00,,,0.00,,2013-01-23 11:43:00,
2013-01-23 05:53:00,37.0,30.0,-100.00,SE,142,0.0,-999.0,76,0.00,,,0.00,,2013-01-23 11:53:00,
2013-01-23 06:00:00,38.0,29.0,-100.00,ESE,108,0.0,-999.0,70,0.00,,,0.00,,2013-01-23 12:00:00,
2013-01-23 06:33:00,38.0,29.0,-100.00,ESE,108,0.0,-999.0,70,0.00,,,0.00,,2013-01-23 12:33:00,
2013-01-23 06:43:00,38.0,29.0,-100.00,ESE,108,0.0,-999.0,70,0.00,,,0.00,,2013-01-23 12:43:00,
2013-01-23 06:53:00,38.0,29.0,-100.00,ESE,108,0.0,-999.0,70,0.00,,,0.00,,2013-01-23 12:53:00,
2013-01-23 07:00:00,36.0,31.0,-100.00,NNE,32,1.0,-999.0,81,0.00,,,0.00,,2013-01-23 13:00:00,
2013-01-23 07:33:00,36.0,31.0,-100.00,NNE,32,1.0,-999.0,81,0.00,,,0.00,,2013-01-23 13:33:00,
2013-01-23 07:43:00,36.0,31.0,-100.00,NNE,32,1.0,-999.0,81,0.00,,,0.00,,2013-01-23 13:43:00,
2013-01-23 07:53:00,36.0,31.0,-100.00,NNE,32,1.0,-999.0,81,0.00,,,0.00,,2013-01-23 13:53:00,
2013-01-23 08:00:00,36.0,32.0,-100.00,North,8,1.0,-999.0,86,0.00,,,0.00,,2013-01-23 14:00:00,
2013-01-23 08:33:00,36.0,32.0,-100.00,North,8,1.0,-999.0,86,0.00,,,0.00,,2013-01-23 14:33:00,
2013-01-23 08:43:00,36.0,32.0,-100.00,North,8,1.0,-999.0,86,0.00,,,0.00,,2013-01-23 14:43:00,
2013-01-23 08:53:00,36.0,32.0,-100.00,North,8,1.0,-999.0,86,0.00,,,0.00,,2013-01-23 14:53:00,
2013-01-23 09:00:00,39.0,33.0,-100.00,NNE,17,0.0,-999.0,79,0.00,,,0.00,,2013-01-23 15:00:00,
2013-01-23 09:33:00,39.0,33.0,-100.00,NNE,17,0.0,-999.0,79,0.00,,,0.00,,2013-01-23 15:33:00,
2013-01-23 09:43:00,39.0,33.0,-100.00,NNE,17,0.0,-999.0,79,0.00,,,0.00,,2013-01-23 15:43:00,
2013-01-23 09:53:00,39.0,33.0,-100.00,NNE,17,0.0,-999.0,79,0.00,,,0.00,,2013-01-23 15:53:00,
2013-01-23 10:00:00,45.0,36.0,-100.00,ESE,116,1.0,-999.0,69,0.00,,,0.00,,2013-01-23 16:00:00,
2013-01-23 10:33:00,45.0,36.0,-100.00,ESE,116,1.0,-999.0,69,0.00,,,0.00,,2013-01-23 16:33:00,
2013-01-23 10:43:00,45.0,36.0,-100.00,ESE,116,1.0,-999.0,69,0.00,,,0.00,,2013-01-23 16:43:00,
2013-01-23 10:53:00,45.0,36.0,-100.00,ESE,116,1.0,-999.0,69,0.00,,,0.00,,2013-01-23 16:53:00,
2013-01-23 11:00:00,50.0,38.0,-100.00,SSE,154,3.0,-999.0,65,0.00,,,0.00,,2013-01-23 17:00:00,
2013-01-23 11:33:00,50.0,38.0,-100.00,SSE,154,3.0,-999.0,65,0.00,,,0.00,,2013-01-23 17:33:00,
2013-01-23 11:43:00,50.0,38.0,-100.00,SSE,154,3.0,-999.0,65,0.00,,,0.00,,2013-01-23 17:43:00,
2013-01-23 11:53:00,50.0,38.0,-100.00,SSE,154,3.0,-999.0,65,0.00,,,0.00,,2013-01-23 17:53:00,
2013-01-23 12:00:00,55.0,41.0,-100.00,SE,146,0.0,-999.0,60,0.00,,,0.00,,2013-01-23 18:00:00,
2013-01-23 12:33:00,55.0,41.0,-100.00,SE,146,0.0,-999.0,60,0.00,,,0.00,,2013-01-23 18:33:00,
2013-01-23 12:44:00,55.0,41.0,-100.00,SE,146,0.0,-999.0,60,0.00,,,0.00,,2013-01-23 18:44:00,
2013-01-23 12:53:00,55.0,41.0,-100.00,SE,146,0.0,-999.0,60,0.00,,,0.00,,2013-01-23 18:53:00,
2013-01-23 13:00:00,61.0,48.0,-100.00,SSW,208,8.0,-999.0,61,0.00,,,0.00,,2013-01-23 19:00:00,
2013-01-23 13:33:00,61.0,48.0,-100.00,SSW,208,8.0,-999.0,61,0.00,,,0.00,,2013-01-23 19:33:00,
2013-01-23 13:43:00,61.0,48.0,-100.00,SSW,208,8.0,-999.0,61,0.00,,,0.00,,2013-01-23 19:43:00,
2013-01-23 13:53:00,61.0,48.0,-100.00,SSW,208,8.0,-999.0,61,0.00,,,0.00,,2013-01-23 19:53:00,
2013-01-23 14:00:00,65.0,49.0,-100.00,SSW,205,2.0,-999.0,57,0.00,,,0.00,,2013-01-23 20:00:00,
2013-01-23 14:33:00,65.0,49.0,-100.00,SSW,205,2.0,-999.0,57,0.00,,,0.00,,2013-01-23 20:33:00,
2013-01-23 14:43:00,65.0,49.0,-100.00,SSW,205,2.0,-999.0,57,0.00,,,0.00,,2013-01-23 20:43:00,
2013-01-23 14:54:00,65.0,49.0,-100.00,SSW,205,2.0,-999.0,57,0.00,,,0.00,,2013-01-23 20:54:00,
2013-01-23 15:00:00,68.0,51.0,-100.00,SSE,160,4.0,-999.0,55,0.00,,,0.00,,2013-01-23 21:00:00,
2013-01-23 15:33:00,68.0,51.0,-100.00,SSE,160,4.0,-999.0,55,0.00,,,0.00,,2013-01-23 21:33:00,
2013-01-23 15:43:00,68.0,51.0,-100.00,SSE,160,4.0,-999.0,55,0.00,,,0.00,,2013-01-23 21:43:00,
2013-01-23 15:53:00,68.0,51.0,-100.00,SSE,160,4.0,-999.0,55,0.00,,,0.00,,2013-01-23 21:53:00,
2013-01-23 16:00:00,70.0,52.0,-100.00,SSE,156,7.0,-999.0,53,0.00,,,0.00,,2013-01-23 22:00:00,
2013-01-23 16:33:00,70.0,52.0,-100.00,SSE,156,7.0,-999.0,53,0.00,,,0.00,,2013-01-23 22:33:00,
2013-01-23 16:43:00,70.0,52.0,-100.00,SSE,156,7.0,-999.0,53,0.00,,,0.00,,2013-01-23 22:43:00,
2013-01-23 16:53:00,70.0,52.0,-100.00,SSE,156,7.0,-999.0,53,0.00,,,0.00,,2013-01-23 22:53:00,
2013-01-23 17:00:00,68.0,53.0,-100.00,SSW,192,6.0,-999.0,58,0.00,,,0.00,,2013-01-23 23:00:00,
2013-01-23 17:33:00,68.0,53.0,-100.00,SSW,192,6.0,-999.0,58,0.00,,,0.00,,2013-01-23 23:33:00,
2013-01-23 17:43:00,68.0,53.0,-100.00,SSW,192,6.0,-999.0,58,0.00,,,0.00,,2013-01-23 23:43:00,
2013-01-23 17:53:00,68.0,53.0,-100.00,SSW,192,6.0,-999.0,58,0.00,,,0.00,,2013-01-23 23:53:00,
2013-01-23 18:00:00,66.0,53.0,-100.00,SSE,167,5.0,-999.0,63,0.00,,,0.00,,2013-01-24 00:00:00,
2013-01-23 18:32:00,66.0,53.0,-100.00,SSE,167,5.0,-999.0,63,0.00,,,0.00,,2013-01-24 00:32:00,
2013-01-23 18:43:00,66.0,53.0,-100.00,SSE,167,5.0,-999.0,63,0.00,,,0.00,,2013-01-24 00:43:00,
2013-01-23 18:53:00,66.0,53.0,-100.00,SSE,167,5.0,-999.0,63,0.00,,,0.00,,2013-01-24 00:53:00,
2013-01-23 19:00:00,62.0,52.0,-100.00,SE,133,0.0,-999.0,70,0.00,,,0.00,,2013-01-24 01:00:00,
2013-01-23 19:33:00,62.0,52.0,-100.00,SE,133,0.0,-999.0,70,0.00,,,0.00,,2013-01-24 01:33:00,
2013-01-23 19:43:00,62.0,52.0,-100.00,SE,133,0.0,-999.0,70,0.00,,,0.00,,2013-01-24 01:43:00,
2013-01-23 19:52:00,62.0,52.0,-100.00,SE,133,0.0,-999.0,70,0.00,,,0.00,,2013-01-24 01:52:00,
2013-01-23 20:00:00,58.0,51.0,-100.00,East,91,0.0,-999.0,77,0.00,,,0.00,,2013-01-24 02:00:00,
2013-01-23 20:33:00,58.0,51.0,-100.00,East,91,0.0,-999.0,77,0.00,,,0.00,,2013-01-24 02:33:00,
2013-01-23 20:43:00,58.0,51.0,-100.00,East,91,0.0,-999.0,77,0.00,,,0.00,,2013-01-24 02:43:00,
2013-01-23 20:52:00,58.0,51.0,-100.00,East,91,0.0,-999.0,77,0.00,,,0.00,,2013-01-24 02:52:00,
2013-01-23 21:00:00,54.0,49.0,-100.00,East,91,0.0,-999.0,83,0.00,,,0.00,,2013-01-24 03:00:00,
2013-01-23 21:33:00,54.0,49.0,-100.00,East,91,0.0,-999.0,83,0.00,,,0.00,,2013-01-24 03:33:00,
2013-01-23 21:43:00,54.0,49.0,-100.00,East,91,0.0,-999.0,83,0.00,,,0.00,,2013-01-24 03:43:00,
2013-01-23 21:53:00,54.0,49.0,-100.00,East,91,0.0,-999.0,83,0.00,,,0.00,,2013-01-24 03:53:00,
2013-01-23 22:00:00,51.0,47.0,-100.00,ENE,71,0.0,-999.0,88,0.00,,,0.00,,2013-01-24 04:00:00,
2013-01-23 22:33:00,51.0,47.0,-100.00,ENE,71,0.0,-999.0,88,0.00,,,0.00,,2013-01-24 04:33:00,
2013-01-23 22:43:00,51.0,47.0,-100.00,ENE,71,0.0,-999.0,88,0.00,,,0.00,,2013-01-24 04:43:00,
2013-01-23 22:53:00,51.0,47.0,-100.00,ENE,71,0.0,-999.0,88,0.00,,,0.00,,2013-01-24 04:53:00,
2013-01-23 23:00:00,49.0,46.0,-100.00,NE,38,0.0,-999.0,91,0.00,,,0.00,,2013-01-24 05:00:00,
2013-01-23 23:33:00,49.0,46.0,-100.00,NE,38,0.0,-999.0,91,0.00,,,0.00,,2013-01-24 05:33:00,
2013-01-23 23:43:00,49.0,46.0,-100.00,NE,38,0.0,-999.0,91,0.00,,,0.00,,2013-01-24 05:43:00,
2013-01-23 23:53:00,49.0,46.0,-100.00,NE,38,0.0,-999.0,91,0.00,,,0.00,,2013-01-24 05:53:00,